sensor_id;sensor_type;location;lat;lon;timestamp;P1;durP1;ratioP1;P2;durP2;ratioP2
20865;SDS011;10593;48.398;10.698;2023-02-07T00:01:21;8.03;;;7.03;;
20865;SDS011;10593;48.398;10.698;2023-02-07T00:03:48;8.93;;;8.03;;
20865;SDS011;10593;48.398;10.698;2023-02-07T00:06:49;9.47;;;7.97;;
20865;SDS011;10593;48.398;10.698;2023-02-07T00:09:07;9.13;;;7.97;;
20865;SDS011;10593;48.398;10.698;2023-02-07T00:11:35;8.40;;;7.60;;
20865;SDS011;10593;48.398;10.698;2023-02-07T00:14:04;8.77;;;7.87;;
20865;SDS011;10593;48.398;10.698;2023-02-07T00:16:33;8.40;;;7.60;;
20865;SDS011;10593;48.398;10.698;2023-02-07T00:18:58;8.93;;;8.13;;
20865;SDS011;10593;48.398;10.698;2023-02-07T00:21:24;8.43;;;7.60;;
20865;SDS011;10593;48.398;10.698;2023-02-07T00:23:52;8.80;;;8.00;;
20865;SDS011;10593;48.398;10.698;2023-02-07T00:26:18;10.40;;;8.40;;
20865;SDS011;10593;48.398;10.698;2023-02-07T00:28:46;10.23;;;8.37;;
20865;SDS011;10593;48.398;10.698;2023-02-07T00:31:15;9.53;;;8.63;;
20865;SDS011;10593;48.398;10.698;2023-02-07T00:33:50;9.13;;;8.13;;
20865;SDS011;10593;48.398;10.698;2023-02-07T00:36:21;8.93;;;8.03;;
20865;SDS011;10593;48.398;10.698;2023-02-07T00:38:49;9.17;;;8.27;;
20865;SDS011;10593;48.398;10.698;2023-02-07T00:41:15;8.93;;;8.13;;
20865;SDS011;10593;48.398;10.698;2023-02-07T00:43:44;9.23;;;8.33;;
20865;SDS011;10593;48.398;10.698;2023-02-07T00:46:11;9.60;;;8.57;;
20865;SDS011;10593;48.398;10.698;2023-02-07T00:48:37;9.90;;;8.90;;
20865;SDS011;10593;48.398;10.698;2023-02-07T00:51:06;9.43;;;8.50;;
20865;SDS011;10593;48.398;10.698;2023-02-07T00:53:33;9.50;;;8.43;;
20865;SDS011;10593;48.398;10.698;2023-02-07T00:55:59;9.87;;;8.97;;
20865;SDS011;10593;48.398;10.698;2023-02-07T00:58:25;9.50;;;8.60;;
20865;SDS011;10593;48.398;10.698;2023-02-07T01:00:51;9.23;;;8.33;;
20865;SDS011;10593;48.398;10.698;2023-02-07T01:03:16;9.40;;;8.43;;
20865;SDS011;10593;48.398;10.698;2023-02-07T01:05:43;9.00;;;8.17;;
20865;SDS011;10593;48.398;10.698;2023-02-07T01:08:09;9.50;;;8.17;;
20865;SDS011;10593;48.398;10.698;2023-02-07T01:10:37;9.90;;;8.90;;
20865;SDS011;10593;48.398;10.698;2023-02-07T01:13:05;9.83;;;8.83;;
20865;SDS011;10593;48.398;10.698;2023-02-07T01:15:34;10.33;;;8.13;;
20865;SDS011;10593;48.398;10.698;2023-02-07T01:18:06;9.03;;;8.13;;
20865;SDS011;10593;48.398;10.698;2023-02-07T01:20:33;9.30;;;8.40;;
20865;SDS011;10593;48.398;10.698;2023-02-07T01:23:00;9.43;;;8.53;;
20865;SDS011;10593;48.398;10.698;2023-02-07T01:25:25;10.70;;;9.23;;
20865;SDS011;10593;48.398;10.698;2023-02-07T01:27:51;8.93;;;7.97;;
20865;SDS011;10593;48.398;10.698;2023-02-07T01:30:17;10.67;;;9.57;;
20865;SDS011;10593;48.398;10.698;2023-02-07T01:32:43;9.80;;;8.03;;
20865;SDS011;10593;48.398;10.698;2023-02-07T01:35:09;9.67;;;8.70;;
20865;SDS011;10593;48.398;10.698;2023-02-07T01:37:34;9.50;;;8.60;;
20865;SDS011;10593;48.398;10.698;2023-02-07T01:40:00;9.13;;;8.23;;
20865;SDS011;10593;48.398;10.698;2023-02-07T01:42:26;9.27;;;8.37;;
20865;SDS011;10593;48.398;10.698;2023-02-07T01:47:22;8.87;;;7.97;;
20865;SDS011;10593;48.398;10.698;2023-02-07T01:49:49;8.93;;;8.03;;
20865;SDS011;10593;48.398;10.698;2023-02-07T01:52:20;9.43;;;8.43;;
20865;SDS011;10593;48.398;10.698;2023-02-07T01:55:02;9.70;;;8.70;;
20865;SDS011;10593;48.398;10.698;2023-02-07T01:57:33;8.93;;;8.13;;
20865;SDS011;10593;48.398;10.698;2023-02-07T01:59:59;9.67;;;8.70;;
20865;SDS011;10593;48.398;10.698;2023-02-07T02:02:26;9.37;;;8.50;;
20865;SDS011;10593;48.398;10.698;2023-02-07T02:04:57;8.90;;;8.10;;
20865;SDS011;10593;48.398;10.698;2023-02-07T02:07:24;9.13;;;8.23;;
20865;SDS011;10593;48.398;10.698;2023-02-07T02:09:51;9.17;;;8.10;;
20865;SDS011;10593;48.398;10.698;2023-02-07T02:12:22;10.27;;;9.23;;
20865;SDS011;10593;48.398;10.698;2023-02-07T02:23:44;10.20;;;9.20;;
20865;SDS011;10593;48.398;10.698;2023-02-07T02:26:48;9.13;;;8.23;;
20865;SDS011;10593;48.398;10.698;2023-02-07T02:33:09;9.00;;;8.10;;
20865;SDS011;10593;48.398;10.698;2023-02-07T02:36:04;9.67;;;8.67;;
20865;SDS011;10593;48.398;10.698;2023-02-07T02:39:00;9.97;;;8.97;;
20865;SDS011;10593;48.398;10.698;2023-02-07T02:44:48;10.13;;;8.93;;
20865;SDS011;10593;48.398;10.698;2023-02-07T02:47:58;9.67;;;8.77;;
20865;SDS011;10593;48.398;10.698;2023-02-07T02:50:26;8.83;;;8.03;;
20865;SDS011;10593;48.398;10.698;2023-02-07T02:52:55;10.70;;;9.60;;
20865;SDS011;10593;48.398;10.698;2023-02-07T02:55:27;9.03;;;8.23;;
20865;SDS011;10593;48.398;10.698;2023-02-07T03:04:42;9.97;;;8.97;;
20865;SDS011;10593;48.398;10.698;2023-02-07T03:08:05;9.10;;;8.13;;
20865;SDS011;10593;48.398;10.698;2023-02-07T03:10:54;9.30;;;8.40;;
20865;SDS011;10593;48.398;10.698;2023-02-07T03:13:42;8.73;;;7.83;;
20865;SDS011;10593;48.398;10.698;2023-02-07T03:16:32;9.40;;;8.50;;
20865;SDS011;10593;48.398;10.698;2023-02-07T03:19:17;9.27;;;8.37;;
20865;SDS011;10593;48.398;10.698;2023-02-07T03:21:52;9.03;;;8.13;;
20865;SDS011;10593;48.398;10.698;2023-02-07T03:24:34;9.03;;;8.13;;
20865;SDS011;10593;48.398;10.698;2023-02-07T03:27:07;10.63;;;8.93;;
20865;SDS011;10593;48.398;10.698;2023-02-07T03:29:38;9.50;;;8.53;;
20865;SDS011;10593;48.398;10.698;2023-02-07T03:32:08;8.80;;;8.00;;
20865;SDS011;10593;48.398;10.698;2023-02-07T03:34:39;9.37;;;8.37;;
20865;SDS011;10593;48.398;10.698;2023-02-07T03:37:25;8.67;;;7.87;;
20865;SDS011;10593;48.398;10.698;2023-02-07T03:39:57;9.60;;;8.67;;
20865;SDS011;10593;48.398;10.698;2023-02-07T03:42:28;9.73;;;8.73;;
20865;SDS011;10593;48.398;10.698;2023-02-07T03:45:02;9.63;;;8.23;;
20865;SDS011;10593;48.398;10.698;2023-02-07T03:47:33;9.47;;;8.57;;
20865;SDS011;10593;48.398;10.698;2023-02-07T03:49:59;8.50;;;7.60;;
20865;SDS011;10593;48.398;10.698;2023-02-07T03:52:25;8.40;;;7.60;;
20865;SDS011;10593;48.398;10.698;2023-02-07T03:54:50;9.00;;;8.10;;
20865;SDS011;10593;48.398;10.698;2023-02-07T03:57:16;9.20;;;8.30;;
20865;SDS011;10593;48.398;10.698;2023-02-07T03:59:42;8.83;;;7.93;;
20865;SDS011;10593;48.398;10.698;2023-02-07T04:02:07;7.67;;;6.97;;
20865;SDS011;10593;48.398;10.698;2023-02-07T04:04:33;8.30;;;7.50;;
20865;SDS011;10593;48.398;10.698;2023-02-07T04:06:59;9.17;;;8.27;;
20865;SDS011;10593;48.398;10.698;2023-02-07T04:09:24;9.53;;;8.20;;
20865;SDS011;10593;48.398;10.698;2023-02-07T04:11:50;9.30;;;8.40;;
20865;SDS011;10593;48.398;10.698;2023-02-07T04:14:16;8.37;;;7.57;;
20865;SDS011;10593;48.398;10.698;2023-02-07T04:16:46;8.93;;;8.03;;
20865;SDS011;10593;48.398;10.698;2023-02-07T04:19:13;9.27;;;8.30;;
20865;SDS011;10593;48.398;10.698;2023-02-07T04:21:40;9.13;;;8.10;;
20865;SDS011;10593;48.398;10.698;2023-02-07T04:24:06;8.87;;;8.00;;
20865;SDS011;10593;48.398;10.698;2023-02-07T04:26:32;8.73;;;7.93;;
20865;SDS011;10593;48.398;10.698;2023-02-07T04:28:57;8.53;;;7.73;;
20865;SDS011;10593;48.398;10.698;2023-02-07T04:31:23;8.10;;;7.30;;
20865;SDS011;10593;48.398;10.698;2023-02-07T04:33:48;9.30;;;8.40;;
20865;SDS011;10593;48.398;10.698;2023-02-07T04:36:14;8.80;;;8.00;;
20865;SDS011;10593;48.398;10.698;2023-02-07T04:38:40;8.93;;;8.07;;
20865;SDS011;10593;48.398;10.698;2023-02-07T04:41:06;9.70;;;8.70;;
20865;SDS011;10593;48.398;10.698;2023-02-07T04:43:32;9.20;;;8.30;;
20865;SDS011;10593;48.398;10.698;2023-02-07T04:46:00;9.57;;;8.67;;
20865;SDS011;10593;48.398;10.698;2023-02-07T04:48:28;9.63;;;8.73;;
20865;SDS011;10593;48.398;10.698;2023-02-07T04:50:54;9.33;;;8.33;;
20865;SDS011;10593;48.398;10.698;2023-02-07T04:53:20;9.20;;;8.40;;
20865;SDS011;10593;48.398;10.698;2023-02-07T04:55:47;10.43;;;9.33;;
20865;SDS011;10593;48.398;10.698;2023-02-07T04:58:17;9.17;;;8.37;;
20865;SDS011;10593;48.398;10.698;2023-02-07T05:00:44;10.13;;;9.13;;
20865;SDS011;10593;48.398;10.698;2023-02-07T05:03:11;9.90;;;8.97;;
20865;SDS011;10593;48.398;10.698;2023-02-07T05:05:38;9.60;;;8.60;;
20865;SDS011;10593;48.398;10.698;2023-02-07T05:08:08;9.77;;;8.77;;
20865;SDS011;10593;48.398;10.698;2023-02-07T05:10:36;9.50;;;8.60;;
20865;SDS011;10593;48.398;10.698;2023-02-07T05:13:03;9.10;;;8.20;;
20865;SDS011;10593;48.398;10.698;2023-02-07T05:15:29;8.70;;;7.73;;
20865;SDS011;10593;48.398;10.698;2023-02-07T05:17:55;8.73;;;7.83;;
20865;SDS011;10593;48.398;10.698;2023-02-07T05:20:21;9.33;;;8.43;;
20865;SDS011;10593;48.398;10.698;2023-02-07T05:22:48;9.37;;;7.87;;
20865;SDS011;10593;48.398;10.698;2023-02-07T05:25:14;7.80;;;7.00;;
20865;SDS011;10593;48.398;10.698;2023-02-07T05:27:40;8.40;;;7.37;;
20865;SDS011;10593;48.398;10.698;2023-02-07T05:30:06;8.10;;;7.30;;
20865;SDS011;10593;48.398;10.698;2023-02-07T05:32:33;8.00;;;7.10;;
20865;SDS011;10593;48.398;10.698;2023-02-07T05:35:17;8.43;;;7.23;;
20865;SDS011;10593;48.398;10.698;2023-02-07T05:37:43;7.67;;;6.97;;
20865;SDS011;10593;48.398;10.698;2023-02-07T05:40:08;8.67;;;7.37;;
20865;SDS011;10593;48.398;10.698;2023-02-07T05:42:37;7.67;;;6.97;;
20865;SDS011;10593;48.398;10.698;2023-02-07T05:45:03;9.47;;;7.57;;
20865;SDS011;10593;48.398;10.698;2023-02-07T05:47:30;10.90;;;8.37;;
20865;SDS011;10593;48.398;10.698;2023-02-07T05:49:56;8.73;;;7.70;;
20865;SDS011;10593;48.398;10.698;2023-02-07T05:52:22;7.93;;;7.23;;
20865;SDS011;10593;48.398;10.698;2023-02-07T05:54:47;9.23;;;8.23;;
20865;SDS011;10593;48.398;10.698;2023-02-07T05:57:13;7.97;;;7.27;;
20865;SDS011;10593;48.398;10.698;2023-02-07T05:59:39;7.87;;;7.07;;
20865;SDS011;10593;48.398;10.698;2023-02-07T06:02:04;7.97;;;7.27;;
20865;SDS011;10593;48.398;10.698;2023-02-07T06:04:30;8.00;;;7.20;;
20865;SDS011;10593;48.398;10.698;2023-02-07T06:06:55;7.40;;;6.70;;
20865;SDS011;10593;48.398;10.698;2023-02-07T06:09:21;8.50;;;7.77;;
20865;SDS011;10593;48.398;10.698;2023-02-07T06:11:47;7.77;;;7.03;;
20865;SDS011;10593;48.398;10.698;2023-02-07T06:14:12;8.37;;;7.53;;
20865;SDS011;10593;48.398;10.698;2023-02-07T06:16:38;7.90;;;7.10;;
20865;SDS011;10593;48.398;10.698;2023-02-07T06:19:04;7.60;;;6.90;;
20865;SDS011;10593;48.398;10.698;2023-02-07T06:21:29;8.37;;;7.30;;
20865;SDS011;10593;48.398;10.698;2023-02-07T06:23:55;8.10;;;7.30;;
20865;SDS011;10593;48.398;10.698;2023-02-07T06:26:21;6.97;;;6.27;;
20865;SDS011;10593;48.398;10.698;2023-02-07T06:28:46;7.63;;;6.97;;
20865;SDS011;10593;48.398;10.698;2023-02-07T06:31:12;8.23;;;7.43;;
20865;SDS011;10593;48.398;10.698;2023-02-07T06:33:38;8.67;;;7.10;;
20865;SDS011;10593;48.398;10.698;2023-02-07T06:36:03;7.47;;;6.77;;
20865;SDS011;10593;48.398;10.698;2023-02-07T06:38:29;7.70;;;7.00;;
20865;SDS011;10593;48.398;10.698;2023-02-07T06:40:55;7.60;;;6.67;;
20865;SDS011;10593;48.398;10.698;2023-02-07T06:43:21;7.47;;;6.67;;
20865;SDS011;10593;48.398;10.698;2023-02-07T06:45:46;7.87;;;7.07;;
20865;SDS011;10593;48.398;10.698;2023-02-07T06:48:12;7.57;;;6.87;;
20865;SDS011;10593;48.398;10.698;2023-02-07T06:50:38;7.30;;;6.60;;
20865;SDS011;10593;48.398;10.698;2023-02-07T06:53:03;7.13;;;6.43;;
20865;SDS011;10593;48.398;10.698;2023-02-07T06:55:35;7.70;;;6.90;;
20865;SDS011;10593;48.398;10.698;2023-02-07T06:58:03;7.93;;;7.10;;
20865;SDS011;10593;48.398;10.698;2023-02-07T07:00:31;7.83;;;7.13;;
20865;SDS011;10593;48.398;10.698;2023-02-07T07:02:57;7.60;;;6.83;;
20865;SDS011;10593;48.398;10.698;2023-02-07T07:05:24;7.10;;;6.43;;
20865;SDS011;10593;48.398;10.698;2023-02-07T07:07:51;7.03;;;6.37;;
20865;SDS011;10593;48.398;10.698;2023-02-07T07:10:17;7.23;;;6.53;;
20865;SDS011;10593;48.398;10.698;2023-02-07T07:12:43;8.37;;;6.87;;
20865;SDS011;10593;48.398;10.698;2023-02-07T07:15:10;7.63;;;6.93;;
20865;SDS011;10593;48.398;10.698;2023-02-07T07:17:36;7.80;;;7.00;;
20865;SDS011;10593;48.398;10.698;2023-02-07T07:20:02;7.97;;;7.17;;
20865;SDS011;10593;48.398;10.698;2023-02-07T07:22:28;7.30;;;6.57;;
20865;SDS011;10593;48.398;10.698;2023-02-07T07:24:54;8.77;;;7.00;;
20865;SDS011;10593;48.398;10.698;2023-02-07T07:27:19;7.13;;;6.43;;
20865;SDS011;10593;48.398;10.698;2023-02-07T07:29:45;6.63;;;6.03;;
20865;SDS011;10593;48.398;10.698;2023-02-07T07:32:11;7.97;;;7.03;;
20865;SDS011;10593;48.398;10.698;2023-02-07T07:34:37;6.97;;;6.37;;
20865;SDS011;10593;48.398;10.698;2023-02-07T07:37:03;7.93;;;7.13;;
20865;SDS011;10593;48.398;10.698;2023-02-07T07:39:30;7.07;;;6.47;;
20865;SDS011;10593;48.398;10.698;2023-02-07T07:41:56;8.77;;;7.00;;
20865;SDS011;10593;48.398;10.698;2023-02-07T07:44:21;7.27;;;6.50;;
20865;SDS011;10593;48.398;10.698;2023-02-07T07:46:47;6.87;;;6.27;;
20865;SDS011;10593;48.398;10.698;2023-02-07T07:49:12;6.87;;;6.27;;
20865;SDS011;10593;48.398;10.698;2023-02-07T07:51:38;7.10;;;6.40;;
20865;SDS011;10593;48.398;10.698;2023-02-07T07:54:04;7.70;;;7.00;;
20865;SDS011;10593;48.398;10.698;2023-02-07T07:56:29;7.33;;;6.63;;
20865;SDS011;10593;48.398;10.698;2023-02-07T07:58:55;7.30;;;6.60;;
20865;SDS011;10593;48.398;10.698;2023-02-07T08:01:21;7.43;;;6.73;;
20865;SDS011;10593;48.398;10.698;2023-02-07T08:03:47;7.33;;;6.63;;
20865;SDS011;10593;48.398;10.698;2023-02-07T08:06:12;7.10;;;6.37;;
20865;SDS011;10593;48.398;10.698;2023-02-07T08:08:38;7.03;;;6.33;;
20865;SDS011;10593;48.398;10.698;2023-02-07T08:11:05;7.20;;;6.57;;
20865;SDS011;10593;48.398;10.698;2023-02-07T08:13:33;7.13;;;6.03;;
20865;SDS011;10593;48.398;10.698;2023-02-07T08:16:01;6.77;;;6.17;;
20865;SDS011;10593;48.398;10.698;2023-02-07T08:18:28;7.37;;;6.57;;
20865;SDS011;10593;48.398;10.698;2023-02-07T08:20:54;7.23;;;6.03;;
20865;SDS011;10593;48.398;10.698;2023-02-07T08:23:20;7.13;;;6.43;;
20865;SDS011;10593;48.398;10.698;2023-02-07T08:25:46;6.87;;;6.27;;
20865;SDS011;10593;48.398;10.698;2023-02-07T08:28:14;7.20;;;6.50;;
20865;SDS011;10593;48.398;10.698;2023-02-07T08:30:40;7.00;;;6.30;;
20865;SDS011;10593;48.398;10.698;2023-02-07T08:33:06;7.30;;;6.43;;
20865;SDS011;10593;48.398;10.698;2023-02-07T08:35:33;7.03;;;6.37;;
20865;SDS011;10593;48.398;10.698;2023-02-07T08:37:58;8.00;;;6.60;;
20865;SDS011;10593;48.398;10.698;2023-02-07T08:40:24;8.27;;;6.90;;
20865;SDS011;10593;48.398;10.698;2023-02-07T08:42:50;8.77;;;7.20;;
20865;SDS011;10593;48.398;10.698;2023-02-07T08:45:16;8.00;;;7.03;;
20865;SDS011;10593;48.398;10.698;2023-02-07T08:47:42;7.87;;;7.07;;
20865;SDS011;10593;48.398;10.698;2023-02-07T08:50:09;8.73;;;7.50;;
20865;SDS011;10593;48.398;10.698;2023-02-07T08:52:37;7.73;;;6.93;;
20865;SDS011;10593;48.398;10.698;2023-02-07T08:55:03;7.77;;;6.93;;
20865;SDS011;10593;48.398;10.698;2023-02-07T08:57:29;8.97;;;6.90;;
20865;SDS011;10593;48.398;10.698;2023-02-07T08:59:56;7.50;;;6.70;;
20865;SDS011;10593;48.398;10.698;2023-02-07T09:02:22;8.07;;;7.27;;
20865;SDS011;10593;48.398;10.698;2023-02-07T09:04:47;7.37;;;6.63;;
20865;SDS011;10593;48.398;10.698;2023-02-07T09:07:13;7.70;;;6.90;;
20865;SDS011;10593;48.398;10.698;2023-02-07T09:09:39;8.60;;;7.13;;
20865;SDS011;10593;48.398;10.698;2023-02-07T09:12:05;6.90;;;6.27;;
20865;SDS011;10593;48.398;10.698;2023-02-07T09:14:32;8.20;;;7.23;;
20865;SDS011;10593;48.398;10.698;2023-02-07T09:16:58;8.40;;;7.33;;
20865;SDS011;10593;48.398;10.698;2023-02-07T09:19:24;8.20;;;7.30;;
20865;SDS011;10593;48.398;10.698;2023-02-07T09:21:49;7.77;;;6.60;;
20865;SDS011;10593;48.398;10.698;2023-02-07T09:24:15;7.53;;;6.73;;
20865;SDS011;10593;48.398;10.698;2023-02-07T09:26:41;7.30;;;6.60;;
20865;SDS011;10593;48.398;10.698;2023-02-07T09:29:07;7.37;;;6.67;;
20865;SDS011;10593;48.398;10.698;2023-02-07T09:31:36;7.77;;;7.07;;
20865;SDS011;10593;48.398;10.698;2023-02-07T09:34:02;7.93;;;7.00;;
20865;SDS011;10593;48.398;10.698;2023-02-07T09:36:29;7.67;;;6.97;;
20865;SDS011;10593;48.398;10.698;2023-02-07T09:38:56;10.03;;;7.17;;
20865;SDS011;10593;48.398;10.698;2023-02-07T09:44:51;8.63;;;7.73;;
20865;SDS011;10593;48.398;10.698;2023-02-07T09:47:26;8.27;;;7.47;;
20865;SDS011;10593;48.398;10.698;2023-02-07T09:49:57;7.77;;;7.00;;
20865;SDS011;10593;48.398;10.698;2023-02-07T09:52:43;8.10;;;7.17;;
20865;SDS011;10593;48.398;10.698;2023-02-07T09:58:16;8.27;;;7.23;;
20865;SDS011;10593;48.398;10.698;2023-02-07T10:00:58;8.13;;;7.40;;
20865;SDS011;10593;48.398;10.698;2023-02-07T10:03:31;8.67;;;7.77;;
20865;SDS011;10593;48.398;10.698;2023-02-07T10:06:07;7.93;;;7.13;;
20865;SDS011;10593;48.398;10.698;2023-02-07T10:08:42;10.00;;;7.90;;
20865;SDS011;10593;48.398;10.698;2023-02-07T10:11:30;9.83;;;7.87;;
20865;SDS011;10593;48.398;10.698;2023-02-07T10:17:17;8.83;;;7.47;;
20865;SDS011;10593;48.398;10.698;2023-02-07T10:23:03;8.57;;;7.63;;
20865;SDS011;10593;48.398;10.698;2023-02-07T10:26:08;7.90;;;7.20;;
20865;SDS011;10593;48.398;10.698;2023-02-07T10:31:46;7.67;;;6.97;;
20865;SDS011;10593;48.398;10.698;2023-02-07T10:36:48;8.80;;;7.90;;
20865;SDS011;10593;48.398;10.698;2023-02-07T10:39:21;8.87;;;7.97;;
20865;SDS011;10593;48.398;10.698;2023-02-07T10:42:02;10.80;;;8.73;;
20865;SDS011;10593;48.398;10.698;2023-02-07T10:44:28;8.57;;;7.77;;
20865;SDS011;10593;48.398;10.698;2023-02-07T10:46:58;8.80;;;7.97;;
20865;SDS011;10593;48.398;10.698;2023-02-07T10:49:28;9.20;;;7.80;;
20865;SDS011;10593;48.398;10.698;2023-02-07T10:52:05;9.30;;;7.67;;
20865;SDS011;10593;48.398;10.698;2023-02-07T10:55:02;9.20;;;8.20;;
20865;SDS011;10593;48.398;10.698;2023-02-07T10:57:32;8.93;;;8.03;;
20865;SDS011;10593;48.398;10.698;2023-02-07T11:02:54;8.67;;;7.80;;
20865;SDS011;10593;48.398;10.698;2023-02-07T11:05:57;8.23;;;7.40;;
20865;SDS011;10593;48.398;10.698;2023-02-07T11:08:32;8.70;;;7.80;;
20865;SDS011;10593;48.398;10.698;2023-02-07T11:11:15;8.77;;;7.97;;
20865;SDS011;10593;48.398;10.698;2023-02-07T11:14:00;8.43;;;7.53;;
20865;SDS011;10593;48.398;10.698;2023-02-07T11:16:29;8.73;;;7.83;;
20865;SDS011;10593;48.398;10.698;2023-02-07T11:18:59;8.80;;;8.00;;
20865;SDS011;10593;48.398;10.698;2023-02-07T11:21:41;8.97;;;8.00;;
20865;SDS011;10593;48.398;10.698;2023-02-07T11:26:52;9.43;;;8.47;;
20865;SDS011;10593;48.398;10.698;2023-02-07T11:29:24;7.67;;;6.87;;
20865;SDS011;10593;48.398;10.698;2023-02-07T11:31:51;8.50;;;7.67;;
20865;SDS011;10593;48.398;10.698;2023-02-07T11:34:26;8.40;;;7.60;;
20865;SDS011;10593;48.398;10.698;2023-02-07T11:42:43;11.13;;;7.93;;
20865;SDS011;10593;48.398;10.698;2023-02-07T11:45:13;9.73;;;8.83;;
20865;SDS011;10593;48.398;10.698;2023-02-07T11:47:42;8.47;;;7.67;;
20865;SDS011;10593;48.398;10.698;2023-02-07T11:50:17;8.57;;;7.77;;
20865;SDS011;10593;48.398;10.698;2023-02-07T11:52:50;7.87;;;7.07;;
20865;SDS011;10593;48.398;10.698;2023-02-07T11:55:21;8.30;;;7.50;;
20865;SDS011;10593;48.398;10.698;2023-02-07T11:58:21;7.93;;;7.23;;
20865;SDS011;10593;48.398;10.698;2023-02-07T12:01:03;7.60;;;6.80;;
20865;SDS011;10593;48.398;10.698;2023-02-07T12:03:41;9.40;;;7.33;;
20865;SDS011;10593;48.398;10.698;2023-02-07T12:06:25;7.27;;;6.50;;
20865;SDS011;10593;48.398;10.698;2023-02-07T12:09:21;7.93;;;7.23;;
20865;SDS011;10593;48.398;10.698;2023-02-07T12:12:05;8.33;;;7.53;;
20865;SDS011;10593;48.398;10.698;2023-02-07T12:15:02;7.70;;;7.00;;
20865;SDS011;10593;48.398;10.698;2023-02-07T12:23:51;8.40;;;7.60;;
20865;SDS011;10593;48.398;10.698;2023-02-07T12:26:31;7.97;;;7.17;;
20865;SDS011;10593;48.398;10.698;2023-02-07T12:32:37;8.90;;;7.40;;
20865;SDS011;10593;48.398;10.698;2023-02-07T12:35:19;7.60;;;6.90;;
20865;SDS011;10593;48.398;10.698;2023-02-07T12:38:28;7.73;;;7.00;;
20865;SDS011;10593;48.398;10.698;2023-02-07T12:41:07;7.30;;;6.60;;
20865;SDS011;10593;48.398;10.698;2023-02-07T12:43:47;7.47;;;6.17;;
20865;SDS011;10593;48.398;10.698;2023-02-07T12:49:24;6.83;;;6.20;;
20865;SDS011;10593;48.398;10.698;2023-02-07T12:54:43;7.53;;;6.33;;
20865;SDS011;10593;48.398;10.698;2023-02-07T13:01:17;6.67;;;6.07;;
20865;SDS011;10593;48.398;10.698;2023-02-07T13:04:25;5.83;;;5.33;;
20865;SDS011;10593;48.398;10.698;2023-02-07T13:07:31;7.00;;;6.07;;
20865;SDS011;10593;48.398;10.698;2023-02-07T13:13:16;6.13;;;5.57;;
20865;SDS011;10593;48.398;10.698;2023-02-07T13:16:09;6.60;;;6.00;;
20865;SDS011;10593;48.398;10.698;2023-02-07T13:18:47;6.23;;;5.73;;
20865;SDS011;10593;48.398;10.698;2023-02-07T13:21:36;6.40;;;5.80;;
20865;SDS011;10593;48.398;10.698;2023-02-07T13:24:22;5.53;;;5.03;;
20865;SDS011;10593;48.398;10.698;2023-02-07T13:26:53;6.47;;;5.87;;
20865;SDS011;10593;48.398;10.698;2023-02-07T13:29:24;6.40;;;5.80;;
20865;SDS011;10593;48.398;10.698;2023-02-07T13:31:57;7.23;;;5.73;;
20865;SDS011;10593;48.398;10.698;2023-02-07T13:34:30;6.23;;;5.63;;
20865;SDS011;10593;48.398;10.698;2023-02-07T13:37:08;5.80;;;5.30;;
20865;SDS011;10593;48.398;10.698;2023-02-07T13:39:45;5.97;;;5.47;;
20865;SDS011;10593;48.398;10.698;2023-02-07T13:42:30;6.53;;;5.63;;
20865;SDS011;10593;48.398;10.698;2023-02-07T13:48:43;6.40;;;5.80;;
20865;SDS011;10593;48.398;10.698;2023-02-07T13:54:31;6.30;;;5.13;;
20865;SDS011;10593;48.398;10.698;2023-02-07T14:00:18;6.00;;;5.40;;
20865;SDS011;10593;48.398;10.698;2023-02-07T14:02:49;5.53;;;5.03;;
20865;SDS011;10593;48.398;10.698;2023-02-07T14:05:21;5.83;;;5.13;;
20865;SDS011;10593;48.398;10.698;2023-02-07T14:10:43;5.80;;;5.30;;
20865;SDS011;10593;48.398;10.698;2023-02-07T14:16:02;5.80;;;5.30;;
20865;SDS011;10593;48.398;10.698;2023-02-07T14:24:03;5.97;;;5.37;;
20865;SDS011;10593;48.398;10.698;2023-02-07T14:29:18;6.13;;;5.53;;
20865;SDS011;10593;48.398;10.698;2023-02-07T14:32:10;5.70;;;5.10;;
20865;SDS011;10593;48.398;10.698;2023-02-07T14:45:37;6.97;;;5.90;;
20865;SDS011;10593;48.398;10.698;2023-02-07T14:51:16;7.77;;;6.00;;
20865;SDS011;10593;48.398;10.698;2023-02-07T15:02:55;17.87;;;6.37;;
20865;SDS011;10593;48.398;10.698;2023-02-07T15:05:34;7.50;;;6.70;;
20865;SDS011;10593;48.398;10.698;2023-02-07T15:10:39;7.37;;;6.10;;
20865;SDS011;10593;48.398;10.698;2023-02-07T15:13:22;7.30;;;6.27;;
20865;SDS011;10593;48.398;10.698;2023-02-07T15:15:56;7.60;;;6.80;;
20865;SDS011;10593;48.398;10.698;2023-02-07T15:18:29;7.03;;;6.33;;
20865;SDS011;10593;48.398;10.698;2023-02-07T15:20:59;7.30;;;6.47;;
20865;SDS011;10593;48.398;10.698;2023-02-07T15:23:27;7.77;;;6.87;;
20865;SDS011;10593;48.398;10.698;2023-02-07T15:25:56;6.80;;;6.17;;
20865;SDS011;10593;48.398;10.698;2023-02-07T15:28:30;8.30;;;6.80;;
20865;SDS011;10593;48.398;10.698;2023-02-07T15:33:24;8.03;;;6.70;;
20865;SDS011;10593;48.398;10.698;2023-02-07T15:36:00;6.83;;;6.13;;
20865;SDS011;10593;48.398;10.698;2023-02-07T15:38:28;8.40;;;6.40;;
20865;SDS011;10593;48.398;10.698;2023-02-07T15:40:54;7.20;;;6.33;;
20865;SDS011;10593;48.398;10.698;2023-02-07T15:43:33;6.80;;;6.20;;
20865;SDS011;10593;48.398;10.698;2023-02-07T15:48:46;7.67;;;6.13;;
20865;SDS011;10593;48.398;10.698;2023-02-07T15:51:19;6.03;;;5.30;;
20865;SDS011;10593;48.398;10.698;2023-02-07T15:53:52;6.97;;;6.13;;
20865;SDS011;10593;48.398;10.698;2023-02-07T15:56:22;7.33;;;6.63;;
20865;SDS011;10593;48.398;10.698;2023-02-07T15:58:49;7.40;;;6.30;;
20865;SDS011;10593;48.398;10.698;2023-02-07T16:01:27;7.57;;;6.47;;
20865;SDS011;10593;48.398;10.698;2023-02-07T16:03:55;6.73;;;6.13;;
20865;SDS011;10593;48.398;10.698;2023-02-07T16:06:25;6.80;;;6.10;;
20865;SDS011;10593;48.398;10.698;2023-02-07T16:08:54;6.73;;;6.13;;
20865;SDS011;10593;48.398;10.698;2023-02-07T16:16:37;6.43;;;5.73;;
20865;SDS011;10593;48.398;10.698;2023-02-07T16:21:39;14.53;;;7.70;;
20865;SDS011;10593;48.398;10.698;2023-02-07T16:24:07;9.23;;;5.80;;
20865;SDS011;10593;48.398;10.698;2023-02-07T16:26:48;6.40;;;5.80;;
20865;SDS011;10593;48.398;10.698;2023-02-07T16:29:16;7.23;;;6.50;;
20865;SDS011;10593;48.398;10.698;2023-02-07T16:31:45;6.67;;;5.97;;
20865;SDS011;10593;48.398;10.698;2023-02-07T16:34:15;7.47;;;6.37;;
20865;SDS011;10593;48.398;10.698;2023-02-07T16:36:46;6.57;;;5.97;;
20865;SDS011;10593;48.398;10.698;2023-02-07T16:39:18;6.40;;;5.80;;
20865;SDS011;10593;48.398;10.698;2023-02-07T16:41:47;6.43;;;5.63;;
20865;SDS011;10593;48.398;10.698;2023-02-07T16:44:19;7.10;;;6.13;;
20865;SDS011;10593;48.398;10.698;2023-02-07T16:46:48;6.50;;;5.90;;
20865;SDS011;10593;48.398;10.698;2023-02-07T16:49:15;6.80;;;6.17;;
20865;SDS011;10593;48.398;10.698;2023-02-07T16:51:46;6.43;;;5.73;;
20865;SDS011;10593;48.398;10.698;2023-02-07T16:54:12;6.47;;;5.83;;
20865;SDS011;10593;48.398;10.698;2023-02-07T16:56:38;8.37;;;6.73;;
20865;SDS011;10593;48.398;10.698;2023-02-07T16:59:10;6.63;;;6.03;;
20865;SDS011;10593;48.398;10.698;2023-02-07T17:01:39;6.87;;;6.03;;
20865;SDS011;10593;48.398;10.698;2023-02-07T17:04:04;6.60;;;6.00;;
20865;SDS011;10593;48.398;10.698;2023-02-07T17:06:30;6.80;;;6.10;;
20865;SDS011;10593;48.398;10.698;2023-02-07T17:08:56;6.20;;;5.70;;
20865;SDS011;10593;48.398;10.698;2023-02-07T17:11:23;5.97;;;5.37;;
20865;SDS011;10593;48.398;10.698;2023-02-07T17:13:50;6.13;;;5.53;;
20865;SDS011;10593;48.398;10.698;2023-02-07T17:16:17;7.53;;;6.23;;